Time;durP1;ratioP1;P1;durP2;ratioP2;P2;SDS_P1;SDS_P2;PMS_P1;PMS_P2;Temp;Humidity;BMP_temperature;BMP_pressure;BME280_temperature;BME280_humidity;BME280_pressure;Samples;Min_cycle;Max_cycle;Signal;HPM_P1;HPM_P2
2022/04/05 00:01:15;;;;;;;11.70;7.37;;;;;;;7.09;74.22;94544.09;6146859;23;20196;-79
2022/04/05 00:03:43;;;;;;;11.83;7.10;;;;;;;7.06;74.53;94531.56;6146789;23;20259;-78
2022/04/05 00:06:10;;;;;;;9.47;6.47;;;;;;;7.06;74.48;94541.91;6147225;23;20168;-78
2022/04/05 00:08:37;;;;;;;7.83;5.90;;;;;;;6.93;74.85;94529.78;6148465;23;20626;-79
2022/04/05 00:11:04;;;;;;;14.53;6.77;;;;;;;6.92;75.19;94538.53;6148443;23;20179;-78
2022/04/05 00:13:31;;;;;;;16.00;7.00;;;;;;;6.84;75.69;94528.38;6149300;23;20175;-78
2022/04/05 00:15:58;;;;;;;14.30;7.70;;;;;;;6.90;75.69;94534.56;6148277;23;20168;-80
2022/04/05 00:18:25;;;;;;;12.37;7.10;;;;;;;6.85;75.73;94535.94;6148258;23;20177;-78
2022/04/05 00:20:53;;;;;;;10.97;6.90;;;;;;;6.87;76.51;94538.31;6148837;23;20200;-80
2022/04/05 00:23:20;;;;;;;12.90;6.97;;;;;;;6.81;76.21;94531.38;6148576;23;20178;-78
2022/04/05 00:25:47;;;;;;;10.67;7.13;;;;;;;6.83;76.77;94543.09;6148466;23;20175;-78
2022/04/05 00:28:14;;;;;;;11.87;7.07;;;;;;;6.80;76.34;94520.25;6148424;23;20175;-79
2022/04/05 00:30:41;;;;;;;12.97;6.70;;;;;;;6.75;76.60;94529.59;6148334;23;20532;-77
2022/04/05 00:33:07;;;;;;;11.27;6.80;;;;;;;6.70;77.72;94531.94;6147758;23;20260;-79
2022/04/05 00:35:34;;;;;;;12.97;7.07;;;;;;;6.70;78.18;94532.75;6148023;23;20644;-78
2022/04/05 00:38:03;;;;;;;12.00;6.70;;;;;;;6.66;78.48;94528.97;6148785;23;20370;-78
2022/04/05 00:40:30;;;;;;;10.77;6.67;;;;;;;6.65;78.62;94531.75;6148143;23;20194;-78
2022/04/05 00:42:58;;;;;;;9.47;6.30;;;;;;;6.55;78.59;94514.03;6148486;23;20171;-78
2022/04/05 00:45:25;;;;;;;12.87;6.70;;;;;;;6.47;78.88;94493.59;6148261;23;20174;-80
2022/04/05 00:47:54;;;;;;;11.23;6.63;;;;;;;6.54;78.84;94515.06;6147963;23;20667;-78
2022/04/05 00:50:23;;;;;;;11.43;6.80;;;;;;;6.54;78.36;94519.41;6148319;23;20216;-81
2022/04/05 00:52:50;;;;;;;13.20;7.17;;;;;;;6.56;78.74;94520.81;6148201;22;20167;-80
2022/04/05 00:55:21;;;;;;;11.03;7.07;;;;;;;6.51;78.46;94514.66;6148391;23;20171;-79
2022/04/05 00:57:51;;;;;;;13.40;7.23;;;;;;;6.45;79.46;94508.47;6148182;23;20225;-79
2022/04/05 01:00:18;;;;;;;14.33;8.13;;;;;;;6.47;79.73;94508.28;6148275;23;20515;-78
2022/04/05 01:02:48;;;;;;;14.37;7.57;;;;;;;6.48;79.60;94510.66;6148202;23;20178;-78
2022/04/05 01:05:17;;;;;;;13.20;7.20;;;;;;;6.47;78.63;94496.16;6147949;23;20177;-78
2022/04/05 01:07:46;;;;;;;14.43;7.83;;;;;;;6.37;79.24;94490.59;6148790;23;20231;-79
2022/04/05 01:10:14;;;;;;;13.77;7.97;;;;;;;6.45;79.36;94505.09;6148190;23;20176;-79
2022/04/05 01:12:42;;;;;;;10.63;6.83;;;;;;;6.39;79.06;94503.31;6148106;23;20177;-79
2022/04/05 01:15:11;;;;;;;10.70;6.90;;;;;;;6.35;78.48;94495.16;6148101;23;20171;-78
2022/04/05 01:17:40;;;;;;;11.83;7.23;;;;;;;6.29;78.54;94494.16;6148259;23;20259;-78
2022/04/05 01:20:09;;;;;;;12.13;7.27;;;;;;;6.27;78.87;94496.13;6148431;23;20204;-78
2022/04/05 01:22:35;;;;;;;11.10;7.23;;;;;;;6.32;78.81;94498.13;6147972;23;20163;-78
2022/04/05 01:25:04;;;;;;;9.67;6.97;;;;;;;6.24;79.06;94508.63;6147657;23;20550;-78
2022/04/05 01:27:31;;;;;;;12.37;6.60;;;;;;;6.25;78.43;94499.91;6147581;23;20174;-79
2022/04/05 01:29:58;;;;;;;12.73;7.47;;;;;;;5.98;79.24;94504.19;6147577;23;20177;-79
2022/04/05 01:32:25;;;;;;;13.43;8.40;;;;;;;5.95;79.73;94501.19;6147388;23;20515;-77
2022/04/05 01:34:52;;;;;;;13.00;8.67;;;;;;;5.96;79.19;94500.22;6147847;23;20170;-77
2022/04/05 01:37:19;;;;;;;18.00;9.20;;;;;;;5.93;79.56;94498.81;6147937;23;20166;-78
2022/04/05 01:39:46;;;;;;;15.70;9.13;;;;;;;5.88;80.06;94503.75;6148228;23;20257;-78
2022/04/05 01:42:16;;;;;;;16.83;9.33;;;;;;;5.72;81.51;94494.53;6148639;23;20206;-80
2022/04/05 01:44:45;;;;;;;14.60;9.53;;;;;;;5.81;80.75;94502.09;6148011;23;20206;-79
2022/04/05 01:47:14;;;;;;;15.60;9.53;;;;;;;5.77;81.23;94490.59;6147564;23;20207;-79
2022/04/05 01:49:44;;;;;;;19.57;8.83;;;;;;;5.73;80.76;94490.97;6147852;23;20707;-79
2022/04/05 01:52:11;;;;;;;15.87;10.47;;;;;;;5.75;81.50;94493.34;6147925;23;20167;-79
2022/04/05 01:54:39;;;;;;;19.90;10.10;;;;;;;5.69;81.51;94496.69;6148065;23;20202;-78
2022/04/05 01:57:06;;;;;;;15.93;9.80;;;;;;;5.62;82.80;94490.72;6148358;23;20217;-79
2022/04/05 01:59:37;;;;;;;21.40;10.33;;;;;;;5.58;83.64;94492.09;6147633;23;20167;-79
2022/04/05 02:02:05;;;;;;;17.53;10.33;;;;;;;5.55;83.90;94482.16;6147512;23;20194;-79
2022/04/05 02:04:32;;;;;;;16.83;10.83;;;;;;;5.45;83.83;94468.84;6148830;23;20220;-79
2022/04/05 02:06:59;;;;;;;17.60;10.30;;;;;;;5.59;84.80;94488.53;6149196;23;20176;-80
2022/04/05 02:09:26;;;;;;;17.03;10.57;;;;;;;5.60;84.60;94488.31;6149719;23;20177;-79
2022/04/05 02:11:54;;;;;;;17.90;10.27;;;;;;;5.62;85.49;94485.56;6149562;23;20166;-79
2022/04/05 02:14:21;;;;;;;16.03;10.10;;;;;;;5.56;85.77;94471.69;6148998;23;20168;-79
2022/04/05 02:16:49;;;;;;;19.97;10.90;;;;;;;5.61;86.42;94477.03;6149432;23;20226;-79
2022/04/05 02:19:16;;;;;;;15.20;9.93;;;;;;;5.53;86.16;94474.63;6149464;23;20177;-79
2022/04/05 02:21:43;;;;;;;15.60;10.17;;;;;;;5.41;85.60;94450.38;6149386;23;20232;-79
2022/04/05 02:24:10;;;;;;;14.70;9.70;;;;;;;5.47;85.90;94461.72;6149410;23;20180;-79
2022/04/05 02:26:37;;;;;;;14.30;9.90;;;;;;;5.47;86.66;94470.25;6150114;23;20168;-79
2022/04/05 02:29:06;;;;;;;17.40;10.40;;;;;;;5.48;87.29;94460.72;6149566;23;20250;-79
2022/04/05 02:31:33;;;;;;;17.07;10.10;;;;;;;5.51;87.18;94468.09;6149872;23;20253;-80
2022/04/05 02:34:01;;;;;;;19.37;10.10;;;;;;;5.54;87.53;94459.97;6149597;23;20173;-79
2022/04/05 02:36:28;;;;;;;22.63;10.70;;;;;;;5.52;86.85;94449.84;6149271;23;20235;-78
2022/04/05 02:38:55;;;;;;;20.40;10.67;;;;;;;5.39;86.81;94447.22;6149626;23;20200;-79
2022/04/05 02:41:22;;;;;;;18.37;10.60;;;;;;;5.32;88.54;94448.94;6149243;23;20198;-79
2022/04/05 02:43:49;;;;;;;16.97;10.70;;;;;;;5.32;88.71;94454.09;6149743;23;20169;-79
2022/04/05 02:46:16;;;;;;;19.67;11.00;;;;;;;5.30;88.06;94443.19;6149490;23;20180;-77
2022/04/05 02:48:43;;;;;;;19.90;9.80;;;;;;;5.29;88.58;94448.53;6149177;23;20729;-78
2022/04/05 02:51:13;;;;;;;20.67;8.97;;;;;;;5.17;88.29;94447.50;6149209;23;20641;-78
2022/04/05 02:53:40;;;;;;;15.93;9.83;;;;;;;5.13;88.45;94442.72;6149628;23;20177;-79
2022/04/05 02:56:08;;;;;;;15.00;8.97;;;;;;;5.08;88.53;94433.94;6148429;23;20559;-78
2022/04/05 02:58:35;;;;;;;16.37;8.83;;;;;;;4.91;88.72;94427.50;6148192;23;20171;-80
2022/04/05 03:01:03;;;;;;;20.27;8.27;;;;;;;4.82;89.99;94438.97;6148385;23;20197;-78
2022/04/05 03:03:29;;;;;;;13.63;7.80;;;;;;;4.64;90.57;94428.34;6148785;23;20229;-80
2022/04/05 03:05:56;;;;;;;14.07;7.23;;;;;;;4.75;90.84;94441.47;6148656;23;20169;-80
2022/04/05 03:08:25;;;;;;;19.33;9.20;;;;;;;4.81;91.34;94439.94;6149025;23;20169;-77
2022/04/05 03:10:52;;;;;;;20.27;9.70;;;;;;;4.83;91.71;94438.75;6148757;23;20666;-77
2022/04/05 03:13:19;;;;;;;26.77;13.37;;;;;;;4.86;91.84;94440.97;6147163;23;20206;-77
2022/04/05 03:15:46;;;;;;;24.97;16.23;;;;;;;4.91;92.08;94440.38;6148401;23;20175;-79
2022/04/05 03:18:13;;;;;;;28.73;17.17;;;;;;;4.99;92.06;94437.69;6147991;23;20175;-79
2022/04/05 03:20:40;;;;;;;33.67;17.47;;;;;;;5.03;90.78;94434.53;6146866;23;20223;-79
2022/04/05 03:23:12;;;;;;;32.37;17.03;;;;;;;5.04;90.31;94430.97;6149071;23;20196;-79
2022/04/05 03:25:43;;;;;;;26.03;15.43;;;;;;;5.08;89.93;94433.94;6149156;23;20163;-78
2022/04/05 03:28:10;;;;;;;25.03;13.67;;;;;;;5.01;88.45;94423.63;6149620;23;20168;-81
2022/04/05 03:30:37;;;;;;;23.53;12.87;;;;;;;5.06;87.61;94444.44;6149680;23;20165;-84
2022/04/05 03:33:03;;;;;;;20.97;11.60;;;;;;;5.00;87.14;94441.84;6149358;23;20170;-82
2022/04/05 03:35:30;;;;;;;19.37;10.00;;;;;;;4.92;87.78;94441.97;6149605;23;20172;-81
2022/04/05 03:37:57;;;;;;;14.40;9.47;;;;;;;4.89;87.21;94435.44;6150186;23;20175;-84
2022/04/05 03:40:24;;;;;;;16.20;9.93;;;;;;;4.81;87.26;94433.00;6149581;23;20169;-82
2022/04/05 03:42:52;;;;;;;21.27;11.20;;;;;;;4.79;87.65;94434.97;6149844;23;20199;-83
2022/04/05 03:45:19;;;;;;;21.03;12.17;;;;;;;4.67;87.92;94430.53;6150073;23;20169;-83
2022/04/05 03:47:46;;;;;;;19.30;11.50;;;;;;;4.67;88.84;94435.69;6149903;23;20524;-82
2022/04/05 03:50:12;;;;;;;22.80;12.47;;;;;;;4.53;89.13;94429.66;6150296;23;20175;-83
2022/04/05 03:52:39;;;;;;;21.67;12.80;;;;;;;4.45;88.87;94422.84;6149697;23;20168;-83
2022/04/05 03:55:07;;;;;;;25.83;14.77;;;;;;;4.47;89.67;94431.16;6149900;23;20515;-84
2022/04/05 03:57:34;;;;;;;29.27;16.87;;;;;;;4.41;89.65;94425.97;6149760;23;20194;-80
2022/04/05 04:00:03;;;;;;;27.93;15.57;;;;;;;4.43;89.83;94437.69;6149920;23;20168;-73
2022/04/05 04:02:34;;;;;;;27.00;16.70;;;;;;;4.42;90.80;94423.22;6148949;23;20196;-73
2022/04/05 04:05:00;;;;;;;28.70;15.77;;;;;;;4.40;90.62;94420.03;6149223;23;20160;-73
2022/04/05 04:07:27;;;;;;;28.17;14.57;;;;;;;4.41;90.30;94420.84;6118080;23;20745;-73
2022/04/05 04:09:54;;;;;;;25.27;13.53;;;;;;;4.37;91.11;94422.19;6109511;23;20183;-74
2022/04/05 04:12:21;;;;;;;28.90;14.83;;;;;;;4.34;91.24;94436.22;6141237;23;20175;-73
2022/04/05 04:14:48;;;;;;;29.43;16.90;;;;;;;4.36;91.02;94426.53;6147893;23;20167;-72
2022/04/05 04:17:16;;;;;;;38.27;17.80;;;;;;;4.37;90.94;94435.03;6147705;23;20173;-73
2022/04/05 04:19:43;;;;;;;37.20;18.03;;;;;;;4.32;92.08;94435.63;6148561;23;20171;-73
2022/04/05 04:22:09;;;;;;;37.23;20.00;;;;;;;4.32;91.87;94439.94;6147594;23;20211;-73
2022/04/05 04:24:36;;;;;;;38.90;21.27;;;;;;;4.32;91.23;94434.81;6147391;23;20504;-74
2022/04/05 04:27:03;;;;;;;48.13;26.47;;;;;;;4.36;91.69;94441.16;6147170;23;20178;-74
2022/04/05 04:29:30;;;;;;;51.97;27.80;;;;;;;4.26;92.44;94438.13;6147900;23;20250;-74
2022/04/05 04:31:57;;;;;;;57.17;30.87;;;;;;;4.23;92.66;94438.47;6148478;23;20168;-74
2022/04/05 04:34:25;;;;;;;53.53;28.23;;;;;;;4.26;92.98;94448.41;6148455;23;20179;-75
2022/04/05 04:36:52;;;;;;;50.07;25.27;;;;;;;4.33;93.33;94450.03;6148412;23;20254;-73
2022/04/05 04:39:19;;;;;;;45.70;22.90;;;;;;;4.39;93.51;94446.72;6147679;23;20172;-74
2022/04/05 04:41:46;;;;;;;37.83;19.13;;;;;;;4.32;92.42;94442.53;6148019;23;20200;-73
2022/04/05 04:44:13;;;;;;;42.40;18.43;;;;;;;4.44;92.16;94451.34;6148380;23;20225;-74
2022/04/05 04:46:39;;;;;;;37.20;17.17;;;;;;;4.44;91.51;94451.34;6147657;23;20178;-74
2022/04/05 04:49:06;;;;;;;31.20;15.63;;;;;;;4.43;91.46;94449.75;6147422;23;20670;-74
2022/04/05 04:51:35;;;;;;;24.87;14.57;;;;;;;4.38;90.94;94455.44;6147717;23;20178;-74
2022/04/05 04:54:01;;;;;;;27.67;14.70;;;;;;;4.44;89.72;94452.09;6147411;23;20179;-73
2022/04/05 04:56:28;;;;;;;29.77;14.57;;;;;;;4.43;89.63;94454.88;6147460;23;20626;-74
2022/04/05 04:58:55;;;;;;;25.57;14.67;;;;;;;4.46;89.24;94459.66;6148017;23;20195;-72
2022/04/05 05:01:22;;;;;;;30.97;14.90;;;;;;;4.43;89.80;94454.88;6147596;23;20188;-73
2022/04/05 05:03:49;;;;;;;23.47;13.67;;;;;;;4.51;89.85;94457.31;6147178;23;20183;-72
2022/04/05 05:06:15;;;;;;;31.43;15.40;;;;;;;4.45;89.02;94451.13;6147266;23;20638;-71
2022/04/05 05:08:44;;;;;;;29.63;14.33;;;;;;;4.58;87.63;94453.03;6147596;23;20164;-72
2022/04/05 05:11:11;;;;;;;52.27;20.60;;;;;;;4.53;88.10;94458.72;6147422;23;20168;-72
2022/04/05 05:13:38;;;;;;;49.33;24.43;;;;;;;4.53;87.98;94460.53;6147749;23;20172;-71
2022/04/05 05:16:05;;;;;;;50.20;24.30;;;;;;;4.53;87.97;94460.53;6147848;23;20176;-72
2022/04/05 05:18:32;;;;;;;39.80;22.23;;;;;;;4.54;88.28;94457.75;6147920;23;20564;-71
2022/04/05 05:20:58;;;;;;;35.57;19.47;;;;;;;4.56;87.86;94460.13;6147158;23;20171;-72
2022/04/05 05:23:25;;;;;;;40.10;22.40;;;;;;;4.49;88.37;94462.66;6147325;23;20191;-73
2022/04/05 05:25:54;;;;;;;46.53;24.60;;;;;;;4.51;89.13;94463.25;6147024;23;20186;-71
2022/04/05 05:28:20;;;;;;;53.10;26.57;;;;;;;4.50;88.80;94466.81;6148113;23;20174;-72
2022/04/05 05:30:47;;;;;;;55.70;28.00;;;;;;;4.42;89.68;94466.94;6147727;23;20172;-72
2022/04/05 05:33:14;;;;;;;70.27;33.23;;;;;;;4.45;89.99;94474.28;6146812;23;20237;-72
2022/04/05 05:35:41;;;;;;;64.03;31.37;;;;;;;4.50;90.58;94476.31;6147442;23;20233;-74
2022/04/05 05:38:08;;;;;;;61.80;28.00;;;;;;;4.57;89.46;94477.16;6147018;23;20183;-73
2022/04/05 05:40:35;;;;;;;43.97;23.07;;;;;;;4.62;90.05;94476.63;6148989;23;20614;-73
2022/04/05 05:43:05;;;;;;;41.23;22.20;;;;;;;4.66;90.33;94467.53;6148895;23;20249;-73
2022/04/05 05:45:35;;;;;;;45.43;21.50;;;;;;;4.70;90.33;94472.13;6149165;23;20164;-75
2022/04/05 05:48:06;;;;;;;48.53;23.00;;;;;;;4.74;90.52;94478.50;6148298;23;20592;-78
2022/04/05 05:50:35;;;;;;;43.00;20.17;;;;;;;4.73;90.25;94465.81;6148964;23;20210;-78
2022/04/05 05:53:04;;;;;;;34.10;17.00;;;;;;;4.77;90.04;94459.28;6042361;22;20214;-80
2022/04/05 05:55:31;;;;;;;27.10;15.07;;;;;;;4.88;89.61;94472.44;6041440;23;20214;-79
2022/04/05 05:57:58;;;;;;;27.50;15.33;;;;;;;4.98;89.35;94472.94;6033291;23;20175;-80
2022/04/05 06:00:27;;;;;;;24.30;13.43;;;;;;;4.99;88.86;94476.31;6036299;23;20294;-76
2022/04/05 06:02:58;;;;;;;29.27;14.00;;;;;;;5.05;88.73;94472.97;6040678;23;20538;-79
2022/04/05 06:05:26;;;;;;;24.43;14.00;;;;;;;5.13;88.01;94472.84;6033837;23;20180;-76
2022/04/05 06:07:54;;;;;;;28.93;14.57;;;;;;;5.11;88.32;94464.47;6032549;23;20179;-76
2022/04/05 06:10:23;;;;;;;28.13;14.50;;;;;;;5.19;88.80;94472.06;6032492;23;20615;-77
2022/04/05 06:13:12;;;;;;;27.07;14.53;;;;;;;5.22;88.40;94470.91;6033050;23;20503;-77
2022/04/05 06:15:40;;;;;;;27.13;14.60;;;;;;;4.89;87.82;94406.31;6032889;23;20659;-78
2022/04/05 06:18:08;;;;;;;31.10;14.93;;;;;;;5.35;87.48;94476.09;6032499;23;20187;-77
2022/04/05 06:20:35;;;;;;;29.00;15.10;;;;;;;5.37;87.96;94462.06;6032009;23;20203;-77
2022/04/05 06:23:08;;;;;;;27.13;14.80;;;;;;;5.47;87.88;94472.03;6032224;23;20202;-76
2022/04/05 06:25:37;;;;;;;34.50;15.33;;;;;;;5.56;87.68;94463.94;6032746;23;20167;-76
2022/04/05 06:28:06;;;;;;;33.77;14.70;;;;;;;5.62;86.37;94464.97;6031643;23;20175;-77
2022/04/05 06:30:35;;;;;;;31.53;14.57;;;;;;;5.73;85.34;94469.56;6032863;23;20244;-77
2022/04/05 06:33:11;;;;;;;33.57;14.47;;;;;;;5.85;85.12;94473.22;6032908;23;20167;-77
2022/04/05 06:35:41;;;;;;;26.03;13.83;;;;;;;5.81;85.07;94466.81;6032536;23;20174;-77
2022/04/05 06:38:08;;;;;;;27.53;14.63;;;;;;;5.88;84.36;94464.28;6032206;23;21049;-78
2022/04/05 06:40:34;;;;;;;30.50;14.10;;;;;;;5.97;84.20;94461.34;6031804;23;20582;-77
2022/04/05 06:43:02;;;;;;;29.43;14.73;;;;;;;6.04;83.54;94475.03;6031624;23;20225;-77
2022/04/05 06:45:29;;;;;;;32.00;14.37;;;;;;;6.14;82.44;94461.78;6032216;23;20185;-76
2022/04/05 06:47:56;;;;;;;32.73;14.83;;;;;;;6.22;81.66;94457.22;6031502;23;20181;-76
2022/04/05 06:50:25;;;;;;;29.50;13.70;;;;;;;6.31;80.75;94452.69;6031648;23;20505;-77
2022/04/05 06:52:53;;;;;;;23.03;14.70;;;;;;;6.29;80.97;94450.28;6032984;23;20239;-78
2022/04/05 06:55:20;;;;;;;29.83;13.80;;;;;;;6.35;80.83;94464.19;6032928;23;20181;-78
2022/04/05 06:57:48;;;;;;;27.60;13.60;;;;;;;6.45;79.55;94459.44;6032456;23;20183;-74
2022/04/05 07:00:17;;;;;;;26.63;14.53;;;;;;;6.47;79.55;94454.06;6033022;23;20488;-76
2022/04/05 07:02:44;;;;;;;31.87;13.73;;;;;;;6.48;79.17;94463.41;6032404;23;20247;-75
2022/04/05 07:05:11;;;;;;;26.90;13.17;;;;;;;6.52;79.24;94460.22;6032349;23;20178;-77
2022/04/05 07:07:40;;;;;;;22.57;13.23;;;;;;;6.58;78.85;94464.59;6032767;23;20256;-76
2022/04/05 07:10:09;;;;;;;35.50;13.33;;;;;;;6.57;78.46;94442.38;6032182;23;20186;-77
2022/04/05 07:12:36;;;;;;;25.40;13.67;;;;;;;6.69;78.37;94451.13;6032306;23;20174;-76
2022/04/05 07:15:03;;;;;;;31.30;13.40;;;;;;;6.82;77.84;94455.47;6031626;23;20178;-75
2022/04/05 07:17:30;;;;;;;20.63;13.30;;;;;;;6.90;76.62;94450.09;6030104;23;20209;-76
2022/04/05 07:19:57;;;;;;;26.87;13.93;;;;;;;6.92;75.70;94457.66;6031127;23;20177;-76
2022/04/05 07:22:24;;;;;;;20.60;12.10;;;;;;;6.97;75.79;94463.00;6031784;23;20529;-76
2022/04/05 07:24:52;;;;;;;22.53;11.93;;;;;;;6.99;74.59;94450.69;6032920;23;20235;-75
2022/04/05 07:27:19;;;;;;;20.67;10.73;;;;;;;7.02;75.99;94456.25;6032598;23;20664;-76
2022/04/05 07:29:46;;;;;;;18.07;9.87;;;;;;;7.10;75.28;94452.69;6032960;23;20204;-76
2022/04/05 07:32:13;;;;;;;17.17;9.47;;;;;;;7.20;74.99;94455.63;6032658;23;20217;-76
2022/04/05 07:34:39;;;;;;;15.70;10.47;;;;;;;7.32;73.79;94462.56;6032634;23;20178;-76
2022/04/05 07:37:09;;;;;;;17.90;11.03;;;;;;;7.34;74.41;94452.03;6032790;23;20181;-76
2022/04/05 07:39:36;;;;;;;19.33;9.70;;;;;;;7.38;74.05;94458.38;6033217;23;20175;-75
2022/04/05 07:42:05;;;;;;;15.27;9.47;;;;;;;7.49;73.60;94460.34;6032979;23;20170;-77
2022/04/05 07:44:33;;;;;;;20.93;9.60;;;;;;;7.56;72.81;94455.91;6032881;23;20202;-75
2022/04/05 07:47:02;;;;;;;15.93;10.00;;;;;;;7.56;71.90;94453.34;6032384;23;20233;-76
2022/04/05 07:49:29;;;;;;;15.83;9.23;;;;;;;7.59;71.80;94449.56;6032379;23;20213;-76
2022/04/05 07:52:02;;;;;;;17.77;10.30;;;;;;;7.59;70.99;94447.00;6016617;23;20265;-78
2022/04/05 07:54:29;;;;;;;16.23;9.53;;;;;;;7.66;70.50;94452.91;6032256;23;20198;-78
2022/04/05 07:56:55;;;;;;;13.83;9.00;;;;;;;7.74;70.39;94463.03;6031887;23;20178;-76
2022/04/05 07:59:24;;;;;;;17.93;10.63;;;;;;;7.80;70.87;94455.25;6033148;23;20174;-76
2022/04/05 08:01:50;;;;;;;17.13;10.10;;;;;;;7.90;70.62;94450.44;6031926;23;20178;-75
2022/04/05 08:04:17;;;;;;;19.30;9.63;;;;;;;8.05;70.49;94467.50;6032644;23;20194;-75
2022/04/05 08:06:44;;;;;;;19.00;11.70;;;;;;;8.17;70.11;94455.47;6033391;23;20492;-76
2022/04/05 08:09:11;;;;;;;28.53;10.93;;;;;;;8.27;69.55;94454.06;6033262;23;20178;-76
2022/04/05 08:11:38;;;;;;;23.40;10.73;;;;;;;8.37;68.70;94448.38;6033018;23;20183;-76
2022/04/05 08:14:04;;;;;;;18.73;9.83;;;;;;;8.47;67.80;94446.94;6033784;23;20167;-76
2022/04/05 08:16:33;;;;;;;18.33;10.70;;;;;;;8.54;68.25;94441.72;6032188;23;20520;-76
2022/04/05 08:18:59;;;;;;;17.57;9.93;;;;;;;8.66;67.26;94449.63;6032724;23;20183;-76
2022/04/05 08:21:27;;;;;;;16.67;10.27;;;;;;;8.76;66.88;94445.53;6031947;23;20630;-76
2022/04/05 08:23:55;;;;;;;18.03;11.30;;;;;;;8.82;66.03;94436.91;6032760;23;20333;-76
2022/04/05 08:26:22;;;;;;;19.03;9.73;;;;;;;8.94;65.82;94453.38;6032999;23;20178;-77
2022/04/05 08:28:49;;;;;;;16.47;9.70;;;;;;;9.04;63.55;94448.47;6032719;23;20171;-76
2022/04/05 08:31:18;;;;;;;15.37;8.70;;;;;;;9.09;62.79;94438.25;6032856;23;20630;-78
2022/04/05 08:33:46;;;;;;;12.67;8.60;;;;;;;9.20;62.44;94443.75;6033504;23;20178;-77
2022/04/05 08:36:13;;;;;;;13.80;8.87;;;;;;;9.20;60.94;94431.59;6033305;23;20171;-78
2022/04/05 08:38:40;;;;;;;17.37;8.20;;;;;;;9.32;59.29;94434.28;6032221;23;20185;-77
2022/04/05 08:41:08;;;;;;;18.37;9.07;;;;;;;9.25;59.72;94426.56;6032680;23;20174;-77
2022/04/05 08:43:36;;;;;;;12.20;8.07;;;;;;;9.30;60.26;94428.47;6032507;23;20253;-75
2022/04/05 08:46:06;;;;;;;12.50;8.83;;;;;;;9.45;61.49;94419.34;6032619;23;20174;-76
2022/04/05 08:48:36;;;;;;;10.63;8.23;;;;;;;9.59;60.79;94422.59;6032239;23;20241;-77
2022/04/05 08:51:05;;;;;;;16.97;8.40;;;;;;;9.77;60.60;94429.56;6032749;23;20175;-77
2022/04/05 08:53:34;;;;;;;13.33;7.67;;;;;;;9.91;57.48;94420.59;6032704;23;20178;-76
2022/04/05 08:56:01;;;;;;;11.47;7.93;;;;;;;10.10;56.84;94415.16;6032901;23;20253;-76
2022/04/05 08:58:28;;;;;;;14.10;8.10;;;;;;;10.27;55.97;94413.53;6032667;23;20220;-77
2022/04/05 09:00:55;;;;;;;12.63;6.90;;;;;;;10.41;54.06;94411.56;6032184;23;20178;-75
2022/04/05 09:03:22;;;;;;;9.60;6.90;;;;;;;10.46;52.79;94409.06;6032915;23;20202;-76
2022/04/05 09:05:50;;;;;;;10.10;6.90;;;;;;;10.58;51.20;94409.09;6032760;23;20532;-75
2022/04/05 09:08:22;;;;;;;9.57;6.50;;;;;;;10.75;50.95;94404.81;6032459;23;20175;-75
2022/04/05 09:10:51;;;;;;;9.63;6.70;;;;;;;10.85;50.34;94405.03;6032207;23;20591;-76
2022/04/05 09:13:21;;;;;;;10.80;6.50;;;;;;;11.01;49.82;94396.59;6032391;23;20174;-74
2022/04/05 09:15:51;;;;;;;10.77;5.97;;;;;;;11.16;47.13;94398.72;6032432;23;20159;-75
2022/04/05 09:18:34;;;;;;;12.50;6.53;;;;;;;11.28;46.27;94387.28;6032675;23;20221;-75
2022/04/05 09:21:01;;;;;;;9.53;5.63;;;;;;;11.44;44.73;94377.19;6031143;23;20178;-75
2022/04/05 09:23:31;;;;;;;7.80;5.17;;;;;;;11.57;40.87;94376.94;6032443;23;20545;-75
2022/04/05 09:26:00;;;;;;;7.83;5.60;;;;;;;11.74;42.93;94383.84;6031914;23;20713;-75
2022/04/05 09:28:29;;;;;;;11.23;5.63;;;;;;;11.99;41.80;94375.69;6031682;23;20178;-75
2022/04/05 09:30:59;;;;;;;12.43;7.10;;;;;;;12.15;43.43;94369.72;6031651;23;20213;-75
2022/04/05 09:33:27;;;;;;;15.70;6.90;;;;;;;12.54;44.32;94370.66;6032276;23;20175;-75
2022/04/05 09:36:03;;;;;;;8.57;6.17;;;;;;;12.78;41.32;94369.47;6032070;23;20483;-75
2022/04/05 09:38:32;;;;;;;14.20;6.30;;;;;;;13.07;41.40;94370.94;6031953;23;20162;-75
2022/04/05 09:41:10;;;;;;;12.33;5.53;;;;;;;13.35;40.10;94364.03;6031578;23;20705;-75
2022/04/05 09:43:37;;;;;;;7.50;5.37;;;;;;;13.65;39.37;94366.97;6031660;23;20261;-75
2022/04/05 09:46:05;;;;;;;9.80;5.47;;;;;;;14.01;37.92;94361.13;6032120;23;20571;-73
2022/04/05 09:48:35;;;;;;;9.00;5.20;;;;;;;14.31;37.38;94350.19;6031809;23;20202;-74
2022/04/05 09:51:06;;;;;;;12.60;6.10;;;;;;;14.35;36.51;94353.91;6031943;23;20159;-73
2022/04/05 09:53:50;;;;;;;8.53;5.70;;;;;;;14.41;37.22;94347.69;6032222;23;20171;-74
2022/04/05 09:56:18;;;;;;;14.00;6.70;;;;;;;14.67;37.62;94349.47;6031775;23;20766;-73
2022/04/05 09:58:50;;;;;;;9.97;6.60;;;;;;;14.42;37.30;94346.66;6031458;23;20649;-73
2022/04/05 10:01:18;;;;;;;9.17;6.20;;;;;;;14.23;38.17;94340.97;6032546;23;20158;-75
2022/04/05 10:03:57;;;;;;;8.53;6.20;;;;;;;14.25;38.94;94335.50;6032022;23;20229;-74
2022/04/05 10:06:24;;;;;;;13.37;6.90;;;;;;;14.50;38.74;94332.31;6032114;23;20167;-74
2022/04/05 10:08:55;;;;;;;9.40;6.93;;;;;;;14.94;37.88;94330.28;6031718;23;20174;-75
2022/04/05 10:11:23;;;;;;;12.00;7.10;;;;;;;15.24;37.15;94333.84;6031945;23;20163;-75
2022/04/05 10:13:50;;;;;;;11.27;6.63;;;;;;;15.44;37.26;94333.16;6031540;23;20237;-75
2022/04/05 10:16:19;;;;;;;10.13;6.40;;;;;;;15.81;36.32;94326.00;6031642;23;20186;-75
2022/04/05 10:18:48;;;;;;;9.13;6.57;;;;;;;15.98;37.26;94319.75;6031654;23;20657;-75
2022/04/05 10:21:16;;;;;;;12.73;6.70;;;;;;;16.41;36.01;94322.72;6031159;23;20562;-75
2022/04/05 10:23:44;;;;;;;8.80;5.93;;;;;;;16.73;35.27;94317.22;6032023;23;20198;-75
2022/04/05 10:26:16;;;;;;;12.57;6.50;;;;;;;17.00;35.14;94312.44;6032267;23;20182;-75
2022/04/05 10:28:45;;;;;;;10.40;6.50;;;;;;;17.25;34.07;94308.19;6032798;23;20161;-74
2022/04/05 10:31:15;;;;;;;15.20;6.87;;;;;;;17.54;33.99;94311.81;6032946;23;20638;-75
2022/04/05 10:33:50;;;;;;;10.90;6.20;;;;;;;17.62;34.00;94307.81;6033604;23;20161;-75
2022/04/05 10:36:23;;;;;;;9.97;5.90;;;;;;;17.72;34.33;94298.03;6033807;23;20166;-75
2022/04/05 10:39:17;;;;;;;12.60;6.70;;;;;;;17.89;33.70;94302.97;6033219;23;20162;-75
2022/04/05 10:42:20;;;;;;;16.00;6.77;;;;;;;18.33;33.92;94293.19;6032884;23;20161;-74
2022/04/05 10:44:55;;;;;;;9.77;6.20;;;;;;;18.90;32.52;94295.13;6033202;23;20669;-74
2022/04/05 10:47:22;;;;;;;10.60;6.20;;;;;;;19.08;32.03;94294.41;6032972;23;20173;-75
2022/04/05 10:49:52;;;;;;;15.87;7.50;;;;;;;19.33;31.54;94284.66;6033172;23;20202;-74
2022/04/05 10:52:21;;;;;;;13.00;6.20;;;;;;;19.39;30.61;94273.03;6033042;23;20343;-74
2022/04/05 10:54:49;;;;;;;13.20;6.18;;;;;;;19.37;30.74;94283.03;6032985;23;20570;-79
2022/04/05 10:57:26;;;;;;;13.45;6.75;;;;;;;19.30;31.96;94283.38;6032613;23;20178;-74
2022/04/05 10:59:57;;;;;;;14.48;6.95;;;;;;;19.41;31.42;94276.16;6033604;23;20246;-74
2022/04/05 11:02:38;;;;;;;12.20;5.70;;;;;;;19.86;31.26;94265.03;6032759;23;20567;-74
2022/04/05 11:05:43;;;;;;;11.85;6.32;;;;;;;20.14;30.05;94273.88;6033403;23;20183;-74
2022/04/05 11:08:18;;;;;;;10.43;6.40;;;;;;;19.42;29.68;94272.47;6033594;23;20645;-74
2022/04/05 11:10:59;;;;;;;9.25;6.40;;;;;;;19.63;30.20;94269.28;6032714;23;20166;-74
2022/04/05 11:13:39;;;;;;;9.57;6.53;;;;;;;19.95;29.39;94251.97;6033078;23;20166;-75
2022/04/05 11:16:11;;;;;;;11.30;6.28;;;;;;;20.11;28.85;94256.78;6033228;23;20167;-73
2022/04/05 11:18:39;;;;;;;10.32;6.20;;;;;;;20.25;29.37;94255.00;6033458;23;20186;-75
2022/04/05 11:21:09;;;;;;;9.13;6.63;;;;;;;20.47;29.21;94256.25;6032603;23;20181;-75
2022/04/05 11:23:47;;;;;;;12.30;6.38;;;;;;;20.87;28.39;94253.69;6033574;23;20182;-75
2022/04/05 11:26:33;;;;;;;10.50;6.78;;;;;;;20.86;28.14;94248.72;6033189;23;20512;-75
2022/04/05 11:29:03;;;;;;;13.35;6.80;;;;;;;20.75;28.77;94228.84;6033317;23;20162;-75
2022/04/05 11:31:37;;;;;;;9.02;5.68;;;;;;;20.61;29.15;94236.72;6032539;23;20170;-75
2022/04/05 11:34:34;;;;;;;9.25;5.70;;;;;;;20.64;29.17;94232.72;6033487;23;20226;-76
2022/04/05 11:37:01;;;;;;;10.82;5.53;;;;;;;20.94;28.86;94232.19;6033425;23;20171;-76